Time;durP1;ratioP1;P1;durP2;ratioP2;P2;SDS_P1;SDS_P2;PMS_P1;PMS_P2;Temp;Humidity;BMP_temperature;BMP_pressure;BME280_temperature;BME280_humidity;BME280_pressure;Samples;Min_cycle;Max_cycle;Signal;HPM_P1;HPM_P2
2023/06/16 00:02:18;;;;;;;8.77;3.70;;;;;;;13.37;100.00;98752.72;5017784;28;20017;-75
2023/06/16 00:04:44;;;;;;;6.30;3.22;;;;;;;13.42;100.00;98773.81;5022887;28;20026;-78
2023/06/16 00:07:09;;;;;;;5.78;3.22;;;;;;;13.23;100.00;98762.00;5013016;28;20506;-75
2023/06/16 00:09:35;;;;;;;4.72;3.08;;;;;;;13.18;100.00;98762.69;5037357;28;20025;-76
2023/06/16 00:12:00;;;;;;;4.70;3.30;;;;;;;13.05;100.00;98763.63;5011313;28;20036;-75
2023/06/16 00:14:26;;;;;;;5.68;3.72;;;;;;;12.88;100.00;98744.28;5034154;28;20112;-75
2023/06/16 00:16:52;;;;;;;4.70;3.72;;;;;;;13.05;100.00;98784.50;5030169;28;20418;-76
2023/06/16 00:19:18;;;;;;;6.32;3.83;;;;;;;12.97;100.00;98774.75;5033645;28;20026;-75
2023/06/16 00:21:45;;;;;;;5.63;3.67;;;;;;;12.85;100.00;98771.06;5013813;28;20499;-75
2023/06/16 00:24:11;;;;;;;7.32;3.72;;;;;;;12.76;100.00;98775.06;5015877;28;20163;-77
2023/06/16 00:26:37;;;;;;;4.85;3.20;;;;;;;12.63;100.00;98776.00;5010248;28;20120;-75
2023/06/16 00:29:03;;;;;;;8.63;3.38;;;;;;;12.63;100.00;98755.13;5011067;28;20037;-75
2023/06/16 00:31:32;;;;;;;4.97;3.45;;;;;;;12.75;100.00;98760.66;5015359;28;20033;-75
2023/06/16 00:34:00;;;;;;;9.18;4.00;;;;;;;12.81;100.00;98748.97;5034625;28;20030;-75
2023/06/16 00:36:26;;;;;;;5.82;3.58;;;;;;;12.94;100.00;98759.72;5016291;28;20033;-75
2023/06/16 00:38:52;;;;;;;8.95;3.63;;;;;;;12.91;100.00;98759.31;5017252;28;20025;-75
2023/06/16 00:41:17;;;;;;;7.18;3.80;;;;;;;12.85;100.00;98744.75;5032610;28;20033;-75
2023/06/16 00:43:42;;;;;;;8.00;3.53;;;;;;;12.79;100.00;98750.22;5033325;28;20474;-75
2023/06/16 00:46:11;;;;;;;8.98;3.10;;;;;;;12.74;100.00;98766.34;5014849;28;20049;-75
2023/06/16 00:48:36;;;;;;;4.43;3.17;;;;;;;12.63;100.00;98762.44;5015860;28;20021;-75
2023/06/16 00:51:02;;;;;;;5.05;3.60;;;;;;;12.76;100.00;98762.34;5014964;28;20025;-75
2023/06/16 00:53:30;;;;;;;5.38;3.63;;;;;;;12.68;100.00;98744.44;5031698;28;20043;-75
2023/06/16 00:55:56;;;;;;;5.77;3.53;;;;;;;12.57;100.00;98730.72;5013671;28;20033;-75
2023/06/16 00:58:22;;;;;;;5.50;3.50;;;;;;;12.74;100.00;98745.44;5014615;28;20028;-75
2023/06/16 01:00:47;;;;;;;8.98;3.40;;;;;;;12.74;100.00;98737.31;5032620;28;20200;-75
2023/06/16 01:03:13;;;;;;;8.55;3.38;;;;;;;12.72;100.00;98750.25;5014747;28;20037;-75
2023/06/16 01:05:39;;;;;;;4.93;3.35;;;;;;;12.82;100.00;98755.22;5032952;28;20160;-76
2023/06/16 01:08:25;;;;;;;4.88;3.17;;;;;;;12.74;100.00;98759.03;5014114;28;20029;-75
2023/06/16 01:11:06;;;;;;;4.65;3.40;;;;;;;12.72;100.00;98756.50;5025642;28;20299;-75
2023/06/16 01:14:15;;;;;;;6.07;3.65;;;;;;;12.70;100.00;98768.63;5025112;28;20087;-75
2023/06/16 01:16:43;;;;;;;6.43;3.38;;;;;;;12.70;100.00;98771.34;4951944;28;20067;-75
2023/06/16 01:19:17;;;;;;;6.10;3.45;;;;;;;12.46;100.00;98746.63;4959109;28;20492;-75
2023/06/16 01:22:06;;;;;;;5.53;3.90;;;;;;;12.41;100.00;98760.03;4990656;28;20038;-75
2023/06/16 01:24:33;;;;;;;7.10;3.45;;;;;;;12.47;100.00;98761.88;5031491;28;20116;-74
2023/06/16 01:26:59;;;;;;;6.07;3.75;;;;;;;12.33;100.00;98754.84;5014563;28;20085;-75
2023/06/16 01:29:26;;;;;;;4.47;3.35;;;;;;;12.48;100.00;98765.44;5015922;28;20021;-75
2023/06/16 01:31:54;;;;;;;7.93;3.78;;;;;;;12.40;100.00;98766.50;5023298;28;20044;-75
2023/06/16 01:34:20;;;;;;;6.35;3.50;;;;;;;12.55;100.00;98768.09;5036304;28;20029;-74
2023/06/16 01:36:47;;;;;;;7.53;4.00;;;;;;;12.53;100.00;98767.50;5014138;28;20021;-75
2023/06/16 01:39:15;;;;;;;6.35;4.07;;;;;;;12.36;100.00;98756.28;5012495;28;20479;-74
2023/06/16 01:41:41;;;;;;;6.93;3.88;;;;;;;12.37;100.00;98756.09;5010220;28;20036;-75
2023/06/16 01:44:07;;;;;;;6.07;3.75;;;;;;;12.46;100.00;98757.50;5010939;28;20025;-74
2023/06/16 01:46:33;;;;;;;7.15;4.15;;;;;;;12.57;100.00;98764.13;5012567;28;20032;-75
2023/06/16 01:48:59;;;;;;;5.57;3.90;;;;;;;12.53;100.00;98756.66;5027666;28;20021;-75
2023/06/16 01:51:25;;;;;;;6.90;3.67;;;;;;;12.47;100.00;98753.75;5030453;28;20121;-75
2023/06/16 01:53:53;;;;;;;6.60;3.92;;;;;;;12.63;100.00;98767.88;5032506;28;20025;-75
2023/06/16 01:56:19;;;;;;;5.20;3.78;;;;;;;12.77;100.00;98758.56;5013160;28;20025;-75
2023/06/16 01:58:45;;;;;;;6.13;3.58;;;;;;;12.86;100.00;98762.72;5032152;28;20025;-74
2023/06/16 02:01:20;;;;;;;7.05;3.85;;;;;;;12.86;100.00;98767.28;5031442;28;20108;-74
2023/06/16 02:04:08;;;;;;;7.22;3.75;;;;;;;12.79;100.00;98750.22;5012912;28;20087;-75
2023/06/16 02:06:43;;;;;;;6.22;3.60;;;;;;;12.82;100.00;98775.03;5027605;28;20071;-75
2023/06/16 02:09:12;;;;;;;6.07;3.80;;;;;;;12.83;100.00;98781.31;5014248;28;20025;-74
2023/06/16 02:11:37;;;;;;;5.15;3.58;;;;;;;12.79;100.00;98778.19;5031954;28;20017;-75
2023/06/16 02:14:03;;;;;;;6.40;3.60;;;;;;;12.87;100.00;98780.66;5031301;28;20084;-75
2023/06/16 02:16:35;;;;;;;9.50;4.70;;;;;;;12.88;100.00;98776.88;5027419;28;20439;-76
2023/06/16 02:19:01;;;;;;;7.20;3.85;;;;;;;12.90;100.00;98763.09;5029606;28;20098;-75
2023/06/16 02:21:26;;;;;;;7.53;4.68;;;;;;;12.94;100.00;98781.44;5021422;28;20037;-75
2023/06/16 02:23:52;;;;;;;5.78;4.22;;;;;;;12.74;100.00;98760.91;5031778;28;20029;-73
2023/06/16 02:26:17;;;;;;;8.23;4.53;;;;;;;12.70;100.00;98764.03;5031560;28;20211;-73
2023/06/16 02:28:42;;;;;;;9.35;4.90;;;;;;;12.61;100.00;98746.34;5031911;28;20449;-76
2023/06/16 02:31:07;;;;;;;6.97;4.22;;;;;;;12.63;100.00;98759.72;5010794;28;20501;-74
2023/06/16 02:33:33;;;;;;;6.95;4.68;;;;;;;12.64;100.00;98758.66;5014376;28;20033;-73
2023/06/16 02:35:58;;;;;;;7.20;4.22;;;;;;;12.86;100.00;98767.28;5012630;28;20107;-73
2023/06/16 02:38:24;;;;;;;7.03;5.00;;;;;;;12.88;100.00;98768.72;5013995;28;20137;-73
2023/06/16 02:40:49;;;;;;;5.95;4.38;;;;;;;12.79;100.00;98770.06;5014204;28;20020;-73
2023/06/16 02:43:14;;;;;;;9.45;4.50;;;;;;;12.97;100.00;98791.03;5031896;28;20026;-75
2023/06/16 02:45:40;;;;;;;9.32;4.80;;;;;;;12.92;100.00;98778.13;5011956;28;20109;-76
2023/06/16 02:48:05;;;;;;;6.05;4.60;;;;;;;12.94;100.00;98770.59;5016887;28;20529;-73
2023/06/16 02:50:31;;;;;;;15.00;4.50;;;;;;;12.85;100.00;98774.59;5012925;28;20025;-73
2023/06/16 02:52:57;;;;;;;7.97;4.47;;;;;;;12.78;100.00;98779.22;5012722;28;20071;-73
2023/06/16 02:55:23;;;;;;;8.07;4.82;;;;;;;12.80;100.00;98779.84;5013284;28;20068;-73
2023/06/16 02:57:48;;;;;;;6.45;4.95;;;;;;;12.80;100.00;98787.16;5031209;28;20017;-74
2023/06/16 03:00:14;;;;;;;7.38;4.80;;;;;;;12.78;100.00;98795.53;5011008;28;20025;-74
2023/06/16 03:02:39;;;;;;;7.53;4.75;;;;;;;12.78;100.00;98790.09;5016295;28;20017;-74
2023/06/16 03:05:06;;;;;;;7.05;5.07;;;;;;;12.82;100.00;98794.06;5013555;28;20025;-74
2023/06/16 03:07:34;;;;;;;11.13;5.15;;;;;;;12.73;100.00;98768.19;5031472;28;20033;-74
2023/06/16 03:09:59;;;;;;;5.90;4.43;;;;;;;12.78;100.00;98781.94;5031461;28;20072;-74
2023/06/16 03:12:24;;;;;;;11.40;5.15;;;;;;;12.78;100.00;98787.38;5012704;28;20033;-74
2023/06/16 03:14:50;;;;;;;7.13;4.57;;;;;;;12.69;100.00;98784.09;5013186;28;20029;-74
2023/06/16 03:17:20;;;;;;;6.97;4.93;;;;;;;12.69;100.00;98775.94;5030219;28;20029;-74
2023/06/16 03:19:47;;;;;;;5.63;4.40;;;;;;;12.60;100.00;98771.00;5030083;28;20552;-74
2023/06/16 03:22:13;;;;;;;11.18;5.22;;;;;;;12.65;100.00;98782.03;5030034;28;20017;-74
2023/06/16 03:24:38;;;;;;;7.15;4.97;;;;;;;12.65;100.00;98787.47;5030561;28;20451;-73
2023/06/16 03:27:04;;;;;;;6.28;4.32;;;;;;;12.58;100.00;98781.25;5013260;28;20013;-74
2023/06/16 03:29:29;;;;;;;8.32;4.60;;;;;;;12.56;100.00;98784.16;5032346;28;20029;-74
2023/06/16 03:31:54;;;;;;;8.55;5.43;;;;;;;12.79;100.00;98801.81;5029193;28;20375;-74
2023/06/16 03:34:19;;;;;;;9.88;5.13;;;;;;;12.49;100.00;98767.91;5015098;28;20025;-74
2023/06/16 03:36:45;;;;;;;10.15;5.70;;;;;;;12.67;100.00;98807.91;5024999;28;20503;-74
2023/06/16 03:39:10;;;;;;;9.80;4.97;;;;;;;12.44;100.00;98794.88;4994093;28;20034;-74
2023/06/16 03:41:36;;;;;;;8.75;5.30;;;;;;;12.38;100.00;98803.88;5005065;28;20025;-75
2023/06/16 03:44:03;;;;;;;6.38;4.97;;;;;;;12.38;100.00;98814.72;5012696;28;20037;-75
2023/06/16 03:46:30;;;;;;;7.38;5.68;;;;;;;12.16;100.00;98789.78;5011273;28;20131;-75
2023/06/16 03:48:57;;;;;;;7.57;4.85;;;;;;;12.19;100.00;98783.09;5015764;28;20049;-75
2023/06/16 03:51:24;;;;;;;7.68;5.40;;;;;;;12.24;100.00;98802.28;5035333;28;20114;-75
2023/06/16 03:53:50;;;;;;;8.32;4.78;;;;;;;12.35;100.00;98804.31;5033708;28;20094;-75
2023/06/16 03:56:16;;;;;;;7.50;5.10;;;;;;;12.30;100.00;98790.53;5008581;28;20030;-75
2023/06/16 03:58:41;;;;;;;7.90;5.53;;;;;;;12.35;100.00;98808.91;5017030;28;20372;-75
2023/06/16 04:01:09;;;;;;;8.93;5.57;;;;;;;12.17;100.00;98786.00;5031244;28;20625;-75
2023/06/16 04:03:34;;;;;;;7.43;5.15;;;;;;;12.34;100.00;98818.94;5031686;28;20021;-74
2023/06/16 04:06:00;;;;;;;8.25;5.03;;;;;;;12.35;100.00;98807.00;5015242;28;20025;-74
2023/06/16 04:08:25;;;;;;;10.05;5.25;;;;;;;12.37;100.00;98813.06;5016390;28;20656;-74
2023/06/16 04:10:52;;;;;;;8.48;5.13;;;;;;;12.31;100.00;98799.50;5033859;28;20104;-74
2023/06/16 04:13:17;;;;;;;8.98;5.13;;;;;;;12.42;100.00;98805.13;5016465;28;20029;-75
2023/06/16 04:15:43;;;;;;;12.60;5.47;;;;;;;12.43;100.00;98789.66;5032227;28;20021;-75
2023/06/16 04:18:08;;;;;;;9.35;5.32;;;;;;;12.53;100.00;98800.06;5016592;28;20121;-74
2023/06/16 04:20:33;;;;;;;11.52;5.40;;;;;;;12.60;100.00;98808.97;5031807;28;20026;-74
2023/06/16 04:22:59;;;;;;;9.13;4.93;;;;;;;12.57;100.00;98790.44;5015978;28;20033;-74
2023/06/16 04:25:25;;;;;;;8.52;6.07;;;;;;;12.79;100.00;98821.63;5032149;28;20288;-74
2023/06/16 04:27:50;;;;;;;7.57;5.05;;;;;;;12.79;100.00;98813.50;5034012;28;20025;-74
2023/06/16 04:30:22;;;;;;;10.77;5.57;;;;;;;12.98;100.00;98808.16;5014929;28;20033;-74
2023/06/16 04:32:49;;;;;;;9.18;5.50;;;;;;;13.00;100.00;98808.78;5033314;28;20049;-74
2023/06/16 04:35:15;;;;;;;11.52;5.95;;;;;;;13.14;100.00;98822.03;5030193;28;20026;-74
2023/06/16 04:37:41;;;;;;;7.85;5.85;;;;;;;13.11;100.00;98802.63;5009263;28;20044;-74
2023/06/16 04:40:08;;;;;;;10.38;5.13;;;;;;;13.30;100.00;98817.16;5015135;28;20056;-74
2023/06/16 04:42:33;;;;;;;15.23;5.70;;;;;;;13.29;100.00;98807.34;5023586;28;20502;-74
2023/06/16 04:44:58;;;;;;;9.18;5.53;;;;;;;13.43;100.00;98810.78;5032633;28;20033;-74
2023/06/16 04:47:24;;;;;;;6.43;5.03;;;;;;;13.54;100.00;98813.59;5013608;28;20072;-74
2023/06/16 04:49:49;;;;;;;7.70;5.50;;;;;;;13.64;100.00;98806.84;5025944;28;20117;-74
2023/06/16 04:52:15;;;;;;;9.52;4.70;;;;;;;13.84;100.00;98818.38;5015200;28;20116;-74
2023/06/16 04:54:40;;;;;;;6.93;5.30;;;;;;;13.85;100.00;98802.88;5015609;28;20074;-74
2023/06/16 04:57:07;;;;;;;6.53;4.78;;;;;;;14.05;100.00;98802.69;5014702;28;20022;-76
2023/06/16 04:59:32;;;;;;;7.63;5.28;;;;;;;14.08;100.00;98792.16;5010015;28;20074;-73
2023/06/16 05:01:58;;;;;;;8.45;5.22;;;;;;;14.25;100.00;98795.97;5027707;28;20025;-74
2023/06/16 05:04:24;;;;;;;7.88;5.13;;;;;;;14.37;100.00;98797.91;5008437;28;20055;-72
2023/06/16 05:06:49;;;;;;;7.50;5.18;;;;;;;14.46;100.00;98778.31;5015129;28;20399;-75
2023/06/16 05:09:14;;;;;;;6.60;4.50;;;;;;;14.65;100.00;98775.59;5006516;28;20018;-76
2023/06/16 05:11:40;;;;;;;8.23;4.88;;;;;;;15.01;100.00;98785.56;5013874;28;20032;-74
2023/06/16 05:14:05;;;;;;;10.98;5.15;;;;;;;15.15;100.00;98794.34;5014898;28;20036;-72
2023/06/16 05:16:31;;;;;;;8.02;4.63;;;;;;;15.43;100.00;98795.56;5030636;28;20034;-74
2023/06/16 05:18:56;;;;;;;6.53;4.63;;;;;;;15.57;100.00;98795.13;5010343;28;20029;-75
2023/06/16 05:21:25;;;;;;;8.43;4.78;;;;;;;15.67;100.00;98783.63;5019767;28;20581;-74
2023/06/16 05:23:52;;;;;;;8.57;4.73;;;;;;;15.94;100.00;98800.38;5031514;28;20028;-71
2023/06/16 05:26:19;;;;;;;14.57;4.93;;;;;;;16.12;100.00;98785.78;5011503;28;20076;-71
2023/06/16 05:28:44;;;;;;;8.07;4.53;;;;;;;16.24;100.00;98776.72;5026845;28;20041;-70
2023/06/16 05:31:10;;;;;;;15.38;5.43;;;;;;;16.53;100.00;98792.09;5022425;28;20033;-70
2023/06/16 05:33:35;;;;;;;11.55;5.00;;;;;;;16.67;100.00;98792.63;5033991;28;20087;-70
2023/06/16 05:36:00;;;;;;;6.57;4.63;;;;;;;16.73;100.00;98782.63;5028925;28;20487;-70
2023/06/16 05:38:25;;;;;;;8.32;4.95;;;;;;;17.13;100.00;98801.72;5029529;28;20021;-71
2023/06/16 05:40:51;;;;;;;7.78;5.32;;;;;;;16.95;100.00;98788.25;5031118;28;20137;-75
2023/06/16 05:43:17;;;;;;;7.20;4.50;;;;;;;17.12;100.00;98783.66;5010394;28;20014;-74
2023/06/16 05:45:42;;;;;;;9.68;5.68;;;;;;;17.16;100.00;98806.72;5024107;28;20033;-72
2023/06/16 05:48:07;;;;;;;7.07;5.22;;;;;;;17.24;100.00;98800.84;5031555;28;20032;-72
2023/06/16 05:50:33;;;;;;;7.75;5.95;;;;;;;17.17;100.00;98802.06;5028255;28;20032;-71
2023/06/16 05:52:58;;;;;;;9.48;5.53;;;;;;;17.06;100.00;98803.78;5023135;28;20021;-72
2023/06/16 05:55:23;;;;;;;10.68;5.10;;;;;;;17.01;100.00;98803.69;5023945;28;20483;-72
2023/06/16 05:57:49;;;;;;;8.85;5.53;;;;;;;17.00;100.00;98797.41;5022428;28;20036;-71
2023/06/16 06:00:15;;;;;;;8.40;5.20;;;;;;;17.34;100.00;98804.81;5003136;28;20113;-72
2023/06/16 06:02:40;;;;;;;9.25;5.90;;;;;;;17.27;100.00;98800.34;5030628;28;20537;-71
2023/06/16 06:05:06;;;;;;;11.60;6.10;;;;;;;17.50;100.00;98803.97;5021941;28;20025;-71
2023/06/16 06:07:31;;;;;;;16.38;5.93;;;;;;;17.56;100.00;98811.22;5018165;28;20510;-71
2023/06/16 06:09:57;;;;;;;9.98;6.15;;;;;;;17.50;100.00;98804.84;5006319;28;20025;-71
2023/06/16 06:12:22;;;;;;;11.45;6.30;;;;;;;17.62;100.00;98812.94;5026368;28;20021;-71
2023/06/16 06:14:47;;;;;;;9.68;5.80;;;;;;;17.82;100.00;98806.19;5025868;28;20646;-71
2023/06/16 06:17:12;;;;;;;11.00;6.03;;;;;;;18.10;100.00;98811.53;5023422;28;20017;-71
2023/06/16 06:19:38;;;;;;;10.63;5.60;;;;;;;18.35;100.00;98804.72;5031601;28;20025;-71
2023/06/16 06:22:03;;;;;;;8.65;5.35;;;;;;;18.51;100.00;98817.53;5008761;28;20291;-71
2023/06/16 06:24:28;;;;;;;15.20;5.43;;;;;;;18.69;100.00;98821.03;5020877;28;20052;-70
2023/06/16 06:26:54;;;;;;;7.90;5.50;;;;;;;18.67;100.00;98812.25;5031374;28;20028;-70
2023/06/16 06:29:19;;;;;;;11.57;4.68;;;;;;;18.77;100.00;98818.69;5013512;28;20028;-71
2023/06/16 06:31:44;;;;;;;10.45;4.80;;;;;;;18.80;100.00;98831.88;5001071;28;20025;-71
2023/06/16 06:34:10;;;;;;;9.35;5.15;;;;;;;18.85;100.00;98817.41;5031643;28;20021;-71
2023/06/16 06:36:39;;;;;;;10.80;5.60;;;;;;;19.37;100.00;98825.09;5024534;28;20025;-71
2023/06/16 06:39:04;;;;;;;11.15;4.88;;;;;;;19.55;100.00;98831.28;5012123;28;20025;-71
2023/06/16 06:41:29;;;;;;;9.20;5.20;;;;;;;19.96;100.00;98828.88;5010767;28;20483;-71
2023/06/16 06:43:55;;;;;;;11.52;5.15;;;;;;;20.06;100.00;98832.50;5030828;28;20353;-71
2023/06/16 06:46:20;;;;;;;10.15;4.55;;;;;;;20.11;100.00;98829.81;5026847;28;20040;-71
2023/06/16 06:48:46;;;;;;;18.17;5.40;;;;;;;20.40;100.00;98836.84;5013447;28;20083;-71
2023/06/16 06:51:13;;;;;;;10.50;5.35;;;;;;;20.90;100.00;98828.00;5030188;28;20029;-71
2023/06/16 06:53:39;;;;;;;8.80;5.35;;;;;;;22.37;100.00;98825.59;5006298;28;20112;-71
2023/06/16 06:56:05;;;;;;;7.97;4.68;;;;;;;24.62;91.59;98825.94;5005380;28;20088;-71
2023/06/16 06:58:31;;;;;;;8.07;5.30;;;;;;;27.13;72.81;98836.44;5034705;28;20029;-71
2023/06/16 07:00:57;;;;;;;8.48;4.80;;;;;;;28.55;61.06;98831.25;5025705;28;20159;-71
2023/06/16 07:03:22;;;;;;;9.02;4.88;;;;;;;29.35;58.21;98836.72;5010321;28;20386;-71
2023/06/16 07:05:47;;;;;;;10.18;5.00;;;;;;;29.65;53.85;98825.75;5009387;28;20037;-71
2023/06/16 07:08:12;;;;;;;7.70;4.75;;;;;;;31.05;51.92;98842.88;5030005;28;20021;-72
2023/06/16 07:10:38;;;;;;;9.35;4.55;;;;;;;31.30;48.87;98839.09;5028597;28;20025;-71
2023/06/16 07:13:06;;;;;;;6.97;4.53;;;;;;;31.15;47.50;98837.75;5007482;28;20021;-71
2023/06/16 07:15:31;;;;;;;8.70;4.28;;;;;;;32.13;45.65;98845.00;5012183;28;20036;-72
2023/06/16 07:17:57;;;;;;;6.43;4.57;;;;;;;30.75;45.04;98851.25;5026911;28;20030;-71
2023/06/16 07:20:22;;;;;;;5.97;4.30;;;;;;;32.66;42.93;98837.66;5022745;28;20231;-71
2023/06/16 07:22:47;;;;;;;10.70;4.57;;;;;;;32.70;42.81;98855.41;5026597;28;20476;-71
2023/06/16 07:25:12;;;;;;;8.00;3.70;;;;;;;32.65;41.97;98847.22;5015748;28;20033;-71
2023/06/16 07:27:38;;;;;;;5.90;4.00;;;;;;;32.94;41.07;98852.59;5034090;28;20464;-72
2023/06/16 07:30:05;;;;;;;6.43;3.65;;;;;;;34.59;37.96;98837.78;5033681;28;20112;-71
2023/06/16 07:32:30;;;;;;;4.70;3.92;;;;;;;34.40;37.06;98841.28;5018922;28;20503;-71
2023/06/16 07:34:55;;;;;;;5.43;3.10;;;;;;;34.60;36.01;98827.34;5015985;28;20032;-71
2023/06/16 07:37:21;;;;;;;6.77;3.40;;;;;;;34.33;35.66;98837.47;5034540;28;20626;-72
2023/06/16 07:39:46;;;;;;;6.13;3.75;;;;;;;34.44;36.72;98844.19;5033799;28;20284;-72
2023/06/16 07:42:11;;;;;;;6.93;3.23;;;;;;;36.04;35.92;98837.81;5018996;28;20083;-72
2023/06/16 07:44:36;;;;;;;6.05;3.70;;;;;;;37.02;35.17;98844.81;5029942;28;20324;-72
2023/06/16 07:47:02;;;;;;;5.55;3.60;;;;;;;36.53;36.05;98850.41;5014900;28;20017;-72
2023/06/16 07:49:29;;;;;;;7.47;3.35;;;;;;;36.91;34.23;98845.81;5036766;28;20029;-72
2023/06/16 07:51:54;;;;;;;6.05;3.28;;;;;;;38.50;32.55;98828.53;5014970;28;20033;-72
2023/06/16 07:54:19;;;;;;;5.40;3.50;;;;;;;38.72;31.89;98840.03;5030663;28;20128;-72
2023/06/16 07:56:45;;;;;;;7.65;3.55;;;;;;;39.12;31.14;98841.13;5033849;28;20022;-72
2023/06/16 07:59:10;;;;;;;6.55;3.25;;;;;;;38.34;32.27;98830.78;5027490;28;20025;-72
2023/06/16 08:01:35;;;;;;;5.07;3.40;;;;;;;38.82;31.71;98833.63;5033029;28;20032;-72
2023/06/16 08:04:00;;;;;;;6.23;3.03;;;;;;;38.91;32.49;98839.81;5031273;28;20319;-72
2023/06/16 08:06:27;;;;;;;9.33;3.40;;;;;;;40.71;29.92;98842.16;5032688;28;20796;-72
2023/06/16 08:08:53;;;;;;;10.27;3.20;;;;;;;40.39;29.47;98839.28;5032295;28;20762;-72
2023/06/16 08:11:19;;;;;;;7.35;3.28;;;;;;;39.95;29.37;98811.25;5021013;28;20029;-73
2023/06/16 08:13:44;;;;;;;5.90;3.17;;;;;;;40.34;29.19;98821.88;5025708;28;20100;-72
2023/06/16 08:16:09;;;;;;;3.45;3.10;;;;;;;39.64;29.06;98822.03;5029684;28;20112;-73
2023/06/16 08:18:35;;;;;;;3.63;2.88;;;;;;;39.59;29.52;98828.06;5029908;28;20108;-73
2023/06/16 08:21:01;;;;;;;4.70;2.90;;;;;;;39.89;29.32;98836.34;5015485;28;20025;-70
2023/06/16 08:23:26;;;;;;;6.78;2.97;;;;;;;39.30;28.75;98829.94;5040723;28;20324;-69
2023/06/16 08:25:51;;;;;;;7.10;2.75;;;;;;;39.88;29.19;98815.69;5033657;28;20100;-69
2023/06/16 08:28:16;;;;;;;4.25;3.03;;;;;;;39.16;29.19;98817.31;5031386;28;20104;-69
2023/06/16 08:30:42;;;;;;;7.43;3.08;;;;;;;38.73;29.42;98813.38;5031670;28;20455;-70
2023/06/16 08:33:09;;;;;;;4.47;2.53;;;;;;;39.81;29.42;98821.31;5015858;28;20553;-71
2023/06/16 08:35:34;;;;;;;3.30;2.58;;;;;;;40.50;29.27;98825.13;5020100;28;20276;-70
2023/06/16 08:38:00;;;;;;;3.63;2.33;;;;;;;41.48;26.88;98818.94;5024582;28;20356;-71
2023/06/16 08:40:25;;;;;;;5.68;2.53;;;;;;;41.10;26.74;98817.84;5035335;28;20042;-71
2023/06/16 08:42:52;;;;;;;4.68;2.35;;;;;;;42.24;26.30;98816.56;5026546;28;20420;-71
2023/06/16 08:45:20;;;;;;;3.97;2.38;;;;;;;41.41;25.68;98818.97;5030751;28;20061;-71
2023/06/16 08:47:45;;;;;;;4.55;2.10;;;;;;;42.88;24.82;98818.13;5030488;28;20029;-71
2023/06/16 08:50:11;;;;;;;5.40;2.97;;;;;;;42.35;25.10;98813.69;5033232;28;20036;-72
2023/06/16 08:52:40;;;;;;;3.25;2.10;;;;;;;42.36;23.85;98813.25;5033099;28;20105;-72
2023/06/16 08:55:10;;;;;;;3.53;2.30;;;;;;;40.91;24.16;98808.53;5030682;28;20021;-71
2023/06/16 08:57:46;;;;;;;4.65;2.30;;;;;;;42.55;24.13;98811.06;5013557;28;20083;-73
2023/06/16 09:00:13;;;;;;;5.03;2.10;;;;;;;43.28;23.08;98813.66;5028392;28;20083;-72
2023/06/16 09:02:41;;;;;;;7.45;2.95;;;;;;;43.51;22.44;98804.44;5016166;28;20017;-72
2023/06/16 09:05:07;;;;;;;8.52;1.70;;;;;;;43.47;21.96;98792.28;5033083;28;20483;-72
2023/06/16 09:07:32;;;;;;;4.47;2.05;;;;;;;43.51;22.48;98798.72;5015169;28;20037;-72
2023/06/16 09:09:58;;;;;;;4.93;2.00;;;;;;;41.72;21.99;98805.88;5023356;28;20017;-72
2023/06/16 09:12:23;;;;;;;3.25;1.88;;;;;;;43.47;22.72;98797.16;5013724;28;20391;-73
2023/06/16 09:14:50;;;;;;;3.60;2.28;;;;;;;43.27;22.66;98800.66;5014464;28;20482;-72
2023/06/16 09:17:21;;;;;;;2.88;2.17;;;;;;;44.79;21.39;98794.47;5021498;28;20021;-72
2023/06/16 09:19:51;;;;;;;2.88;2.05;;;;;;;44.75;21.29;98793.66;5025468;28;20079;-73
2023/06/16 09:22:18;;;;;;;3.03;2.13;;;;;;;43.58;21.53;98800.72;5023859;28;20063;-73
2023/06/16 09:24:55;;;;;;;4.50;2.13;;;;;;;43.92;21.38;98794.97;5030827;28;20037;-73
2023/06/16 09:27:23;;;;;;;4.85;1.83;;;;;;;44.89;20.77;98796.31;5012727;28;20028;-73
2023/06/16 09:30:06;;;;;;;4.00;1.90;;;;;;;45.23;20.58;98789.56;5032654;28;20039;-73
2023/06/16 09:32:38;;;;;;;2.50;1.98;;;;;;;44.85;19.80;98781.28;5023644;28;20029;-73
2023/06/16 09:35:19;;;;;;;5.25;2.00;;;;;;;44.42;20.93;98782.03;5014908;28;20017;-73
2023/06/16 09:37:46;;;;;;;3.47;1.83;;;;;;;44.26;20.74;98784.72;5004565;28;20076;-73
2023/06/16 09:40:13;;;;;;;3.42;2.08;;;;;;;43.60;21.63;98783.19;5028603;28;20028;-72
2023/06/16 09:42:39;;;;;;;3.78;2.00;;;;;;;44.38;20.28;98787.78;5032493;28;20033;-73
2023/06/16 09:45:17;;;;;;;5.15;1.90;;;;;;;45.14;20.07;98783.59;5012140;28;20049;-73
2023/06/16 09:47:47;;;;;;;5.65;2.20;;;;;;;45.26;20.43;98785.84;5023866;28;20022;-73
2023/06/16 09:50:16;;;;;;;3.63;1.95;;;;;;;43.05;20.89;98767.91;5023479;28;20031;-73
2023/06/16 09:52:46;;;;;;;4.05;2.25;;;;;;;42.79;20.76;98775.94;5032416;28;20655;-72
2023/06/16 09:55:12;;;;;;;3.97;2.15;;;;;;;43.66;20.66;98773.75;5027596;28;20426;-73
2023/06/16 09:57:40;;;;;;;2.78;1.90;;;;;;;43.83;20.24;98771.06;5022537;28;20028;-72
2023/06/16 10:00:15;;;;;;;3.40;2.33;;;;;;;45.40;20.05;98773.31;5030684;28;20052;-72
2023/06/16 10:02:42;;;;;;;2.20;1.98;;;;;;;44.92;20.87;98775.44;5025234;28;20025;-72
2023/06/16 10:05:09;;;;;;;4.60;2.50;;;;;;;43.70;21.65;98768.78;5028377;28;20025;-71
2023/06/16 10:07:37;;;;;;;3.50;2.00;;;;;;;44.25;21.37;98774.53;5028752;28;20091;-71
2023/06/16 10:10:05;;;;;;;5.32;2.60;;;;;;;44.67;20.17;98757.94;5013822;28;20021;-72
2023/06/16 10:12:33;;;;;;;4.95;2.38;;;;;;;43.70;20.24;98767.97;5012759;28;20483;-72
2023/06/16 10:15:01;;;;;;;3.35;1.90;;;;;;;44.93;20.12;98781.97;5026429;28;20475;-72
2023/06/16 10:17:30;;;;;;;5.25;1.90;;;;;;;45.16;19.94;98773.38;5003652;28;20049;-72
2023/06/16 10:19:56;;;;;;;3.08;2.10;;;;;;;44.21;20.65;98768.09;5025921;28;20088;-72
2023/06/16 10:22:21;;;;;;;2.70;1.90;;;;;;;45.94;19.92;98764.41;5021512;28;20471;-72
2023/06/16 10:24:47;;;;;;;3.78;2.38;;;;;;;45.85;19.29;98756.41;5031564;28;20037;-72
2023/06/16 10:27:13;;;;;;;6.07;2.03;;;;;;;46.49;19.31;98762.66;5028462;28;20391;-72
2023/06/16 10:29:39;;;;;;;5.18;2.08;;;;;;;47.12;18.81;98755.69;5013054;28;20033;-72
2023/06/16 10:32:06;;;;;;;5.75;2.10;;;;;;;45.84;18.56;98751.13;5022347;28;20030;-72
2023/06/16 10:34:46;;;;;;;4.30;2.00;;;;;;;46.34;19.37;98759.34;5028150;28;20431;-72
2023/06/16 10:37:13;;;;;;;3.30;1.90;;;;;;;46.07;17.96;98753.06;5031355;28;20029;-72
2023/06/16 10:39:43;;;;;;;2.88;2.10;;;;;;;45.84;18.79;98766.22;5031297;28;20028;-72
2023/06/16 10:42:11;;;;;;;3.33;2.15;;;;;;;44.47;18.43;98761.56;5029029;28;20021;-72
2023/06/16 10:44:37;;;;;;;3.60;2.33;;;;;;;45.01;18.97;98761.38;5021153;28;20500;-72
2023/06/16 10:47:08;;;;;;;4.22;2.10;;;;;;;45.41;19.71;98749.22;5025711;28;20033;-72
2023/06/16 10:49:43;;;;;;;2.92;1.98;;;;;;;44.10;19.48;98746.25;5022410;28;20112;-71
2023/06/16 10:52:08;;;;;;;5.43;2.05;;;;;;;42.63;20.61;98745.16;5025852;28;20021;-72
2023/06/16 10:54:45;;;;;;;2.63;2.30;;;;;;;44.26;20.40;98744.78;5030032;28;20095;-71
2023/06/16 10:57:12;;;;;;;2.50;2.15;;;;;;;44.91;20.85;98750.19;5035323;28;20075;-72
2023/06/16 10:59:57;;;;;;;5.32;2.20;;;;;;;43.38;20.77;98739.91;5028416;28;20030;-72
2023/06/16 11:02:24;;;;;;;2.50;2.20;;;;;;;44.26;20.55;98747.63;5026296;28;20159;-72
2023/06/16 11:05:11;;;;;;;4.18;2.10;;;;;;;43.79;20.24;98738.97;5027579;28;20526;-71
2023/06/16 11:08:02;;;;;;;2.58;2.00;;;;;;;44.89;19.86;98746.97;5033469;28;20029;-70
2023/06/16 11:10:28;;;;;;;3.58;2.20;;;;;;;43.51;20.50;98743.78;5030638;28;20036;-70
2023/06/16 11:12:53;;;;;;;3.45;2.15;;;;;;;42.60;20.37;98748.03;5028765;28;20025;-69
2023/06/16 11:15:19;;;;;;;6.03;2.13;;;;;;;43.36;19.61;98739.53;5011165;28;20084;-70
2023/06/16 11:17:47;;;;;;;3.30;2.10;;;;;;;44.94;20.02;98750.13;5015753;28;20700;-70
2023/06/16 11:20:13;;;;;;;4.47;2.28;;;;;;;46.08;19.37;98686.03;5018027;28;20495;-70
2023/06/16 11:22:38;;;;;;;3.30;2.47;;;;;;;43.92;19.78;98740.78;5015591;28;20057;-71
2023/06/16 11:25:04;;;;;;;2.75;2.20;;;;;;;40.28;22.39;98751.41;5036161;28;20029;-70
2023/06/16 11:27:31;;;;;;;2.97;2.22;;;;;;;39.01;22.83;98745.72;5022054;28;20030;-70